createdAt,value
2019-01-06T00:00:12.791Z,102676.17
2019-01-06T00:01:00.968Z,102683.21
2019-01-06T00:01:54.913Z,102678.39
2019-01-06T00:02:51.774Z,102685.38
2019-01-06T00:03:46.246Z,102688.34
2019-01-06T00:04:49.143Z,102689.12
2019-01-06T00:05:41.748Z,102683.86
2019-01-06T00:06:35.381Z,102684.59
2019-01-06T00:07:28.394Z,102686.57
2019-01-06T00:08:14.308Z,102684.89
2019-01-06T00:09:10.480Z,102690.41
2019-01-06T00:10:04.360Z,102689.77
2019-01-06T00:11:10.328Z,102691.69
2019-01-06T00:12:09.655Z,102693.38
2019-01-06T00:13:12.924Z,102697.86
2019-01-06T00:14:06.591Z,102695.05
2019-01-06T00:15:06.894Z,102693.77
2019-01-06T00:15:59.231Z,102690.75
2019-01-06T00:17:04.010Z,102692.48
2019-01-06T00:18:03.519Z,102690.75
2019-01-06T00:18:55.819Z,102697.95
2019-01-06T00:19:50.054Z,102701.89
2019-01-06T00:20:42.532Z,102693.16
2019-01-06T00:21:39.628Z,102690.11
2019-01-06T00:22:35.100Z,102693.47
2019-01-06T00:23:29.217Z,102687.36
2019-01-06T00:24:38.496Z,102689.53
2019-01-06T00:25:31.095Z,102694.11
2019-01-06T00:26:43.169Z,102692.09
2019-01-06T00:27:35.536Z,102692.34
2019-01-06T00:28:28.828Z,102699.23
2019-01-06T00:29:19.840Z,102695.59
2019-01-06T00:30:12.605Z,102693.92
2019-01-06T00:31:09.880Z,102698.50
2019-01-06T00:31:56.405Z,102695.48
2019-01-06T00:32:52.838Z,102694.50
2019-01-06T00:33:50.181Z,102698.44
2019-01-06T00:34:36.148Z,102684.80
2019-01-06T00:35:40.934Z,102694.75
2019-01-06T00:36:40.589Z,102696.17
2019-01-06T00:37:40.302Z,102685.44
2019-01-06T00:38:42.855Z,102685.14
2019-01-06T00:39:45.465Z,102683.45
2019-01-06T00:40:39.241Z,102676.66
2019-01-06T00:41:31.528Z,102685.93
2019-01-06T00:42:35.319Z,102683.77
2019-01-06T00:43:28.357Z,102687.30
2019-01-06T00:44:36.631Z,102679.22
2019-01-06T00:45:36.852Z,102683.06
2019-01-06T00:46:37.078Z,102676.17
2019-01-06T00:47:40.785Z,102681.59
2019-01-06T00:48:40.635Z,102680.95
2019-01-06T00:49:34.017Z,102688.64
2019-01-06T00:50:32.281Z,102699.59
2019-01-06T00:51:35.024Z,102694.16
2019-01-06T00:52:29.384Z,102705.69
2019-01-06T00:53:21.372Z,102707.47
2019-01-06T00:54:21.673Z,102711.22
2019-01-06T00:55:27.760Z,102714.72
2019-01-06T00:56:20.811Z,102714.56
2019-01-06T00:57:20.775Z,102712.65
2019-01-06T00:58:13.303Z,102718.66
2019-01-06T00:59:00.523Z,102716.64
2019-01-06T00:59:45.988Z,102711.85
2019-01-06T01:00:40.180Z,102717.03
2019-01-06T01:01:37.339Z,102722.21
2019-01-06T01:02:34.577Z,102714.53
2019-01-06T01:03:34.263Z,102721.61
2019-01-06T01:04:27.575Z,102718.31
2019-01-06T01:05:24.799Z,102711.91
2019-01-06T01:06:16.189Z,102714.28
2019-01-06T01:07:21.858Z,102720.78
2019-01-06T01:08:15.118Z,102720.53
2019-01-06T01:09:14.925Z,102711.85
2019-01-06T01:10:21.597Z,102717.13
2019-01-06T01:11:15.475Z,102703.19
2019-01-06T01:12:18.139Z,102709.41
2019-01-06T01:13:11.236Z,102717.48
2019-01-06T01:14:07.714Z,102712.36
2019-01-06T01:15:14.216Z,102713.25
2019-01-06T01:16:06.633Z,102717.58
2019-01-06T01:17:15.387Z,102712.02
2019-01-06T01:18:08.393Z,102715.55
2019-01-06T01:19:11.650Z,102715.95
2019-01-06T01:20:11.360Z,102711.72
2019-01-06T01:21:04.057Z,102717.42
2019-01-06T01:22:10.354Z,102714.52
2019-01-06T01:23:03.079Z,102716.14
2019-01-06T01:24:02.745Z,102712.60
2019-01-06T01:25:03.644Z,102710.72
2019-01-06T01:25:48.451Z,102717.93
2019-01-06T01:26:51.469Z,102717.77
2019-01-06T01:28:02.994Z,102724.27
2019-01-06T01:29:12.427Z,102718.27
2019-01-06T01:30:11.859Z,102727.44
2019-01-06T01:31:04.981Z,102721.52
2019-01-06T01:32:07.818Z,102725.06
2019-01-06T01:33:11.105Z,102722.80
2019-01-06T01:34:09.789Z,102728.22
2019-01-06T01:35:07.349Z,102725.31
2019-01-06T01:36:01.055Z,102733.88
2019-01-06T01:36:53.685Z,102729.05
2019-01-06T01:37:46.443Z,102737.17
2019-01-06T01:38:36.689Z,102731.67
2019-01-06T01:39:39.715Z,102736.24
2019-01-06T01:40:31.960Z,102735.12
2019-01-06T01:41:20.053Z,102733.59
2019-01-06T01:42:23.095Z,102729.84
2019-01-06T01:43:16.151Z,102734.33
2019-01-06T01:44:10.197Z,102732.26
2019-01-06T01:45:11.957Z,102731.86
2019-01-06T01:46:05.950Z,102736.29
2019-01-06T01:46:51.661Z,102736.89
2019-01-06T01:47:43.731Z,102734.38
2019-01-06T01:48:45.987Z,102740.17
2019-01-06T01:49:57.870Z,102735.12
2019-01-06T01:50:52.525Z,102732.55
2019-01-06T01:51:43.947Z,102736.98
2019-01-06T01:52:34.925Z,102738.41
2019-01-06T01:53:27.652Z,102737.42
2019-01-06T01:54:17.048Z,102736.94
2019-01-06T01:55:09.685Z,102733.23
2019-01-06T01:56:11.123Z,102732.55
2019-01-06T01:57:10.177Z,102739.05
2019-01-06T01:58:02.833Z,102733.23
2019-01-06T01:58:55.576Z,102731.95
2019-01-06T01:59:49.204Z,102736.40
2019-01-06T02:01:01.539Z,102737.03
2019-01-06T02:01:55.534Z,102734.77
2019-01-06T02:02:47.798Z,102738.02
2019-01-06T02:03:53.207Z,102741.03
2019-01-06T02:04:49.858Z,102740.48
2019-01-06T02:05:37.529Z,102743.78
2019-01-06T02:06:28.913Z,102736.00
2019-01-06T02:07:25.845Z,102740.23
2019-01-06T02:08:18.158Z,102736.00
2019-01-06T02:09:10.693Z,102738.27
2019-01-06T02:10:23.401Z,102741.61
2019-01-06T02:11:23.109Z,102739.89
2019-01-06T02:12:29.060Z,102741.02
2019-01-06T02:13:33.407Z,102733.39
2019-01-06T02:14:30.533Z,102736.38
2019-01-06T02:15:22.855Z,102732.05
2019-01-06T02:16:25.824Z,102733.09
2019-01-06T02:17:35.742Z,102732.60
2019-01-06T02:18:41.504Z,102737.62
2019-01-06T02:19:46.019Z,102732.54
2019-01-06T02:20:35.956Z,102728.46
2019-01-06T02:21:29.707Z,102734.77
2019-01-06T02:22:23.785Z,102726.09
2019-01-06T02:23:20.170Z,102735.10
2019-01-06T02:24:07.887Z,102731.41
2019-01-06T02:25:20.159Z,102732.55
2019-01-06T02:26:23.030Z,102733.39
2019-01-06T02:27:15.881Z,102729.16
2019-01-06T02:28:16.619Z,102731.55
2019-01-06T02:29:10.262Z,102733.72
2019-01-06T02:30:11.826Z,102737.28
2019-01-06T02:31:04.205Z,102728.66
2019-01-06T02:31:57.390Z,102732.89
2019-01-06T02:32:50.320Z,102733.68
2019-01-06T02:33:40.554Z,102726.00
2019-01-06T02:34:33.395Z,102733.19
2019-01-06T02:35:26.022Z,102731.12
2019-01-06T02:36:22.564Z,102730.33
2019-01-06T02:37:14.980Z,102729.64
2019-01-06T02:38:27.069Z,102734.52
2019-01-06T02:39:20.901Z,102726.94
2019-01-06T02:40:17.832Z,102721.91
2019-01-06T02:41:10.281Z,102726.16
2019-01-06T02:42:10.270Z,102729.34
2019-01-06T02:43:02.688Z,102725.27
2019-01-06T02:43:52.895Z,102728.32
2019-01-06T02:44:55.302Z,102733.23
2019-01-06T02:45:50.646Z,102726.88
2019-01-06T02:46:44.738Z,102727.67
2019-01-06T02:47:47.501Z,102729.34
2019-01-06T02:48:41.708Z,102725.31
2019-01-06T02:49:33.997Z,102729.84
2019-01-06T02:50:27.851Z,102729.94
2019-01-06T02:51:24.099Z,102723.73
2019-01-06T02:52:16.972Z,102729.98
2019-01-06T02:53:20.282Z,102729.98
2019-01-06T02:54:19.643Z,102729.44
2019-01-06T02:55:12.230Z,102720.97
2019-01-06T02:56:24.085Z,102722.70
2019-01-06T02:57:23.775Z,102731.12
2019-01-06T02:58:26.603Z,102721.96
2019-01-06T02:59:19.296Z,102728.90
2019-01-06T03:00:12.168Z,102718.75
2019-01-06T03:00:58.555Z,102727.72
2019-01-06T03:01:51.725Z,102726.44
2019-01-06T03:02:43.778Z,102723.88
2019-01-06T03:03:37.859Z,102732.20
2019-01-06T03:04:44.015Z,102730.78
2019-01-06T03:05:43.801Z,102729.55
2019-01-06T03:06:55.775Z,102729.84
2019-01-06T03:07:44.169Z,102732.89
2019-01-06T03:08:50.796Z,102729.20
2019-01-06T03:09:47.550Z,102737.03
2019-01-06T03:10:39.693Z,102725.60
2019-01-06T03:11:39.485Z,102730.78
2019-01-06T03:12:35.290Z,102732.00
2019-01-06T03:13:41.516Z,102728.56
2019-01-06T03:14:23.459Z,102728.11
2019-01-06T03:15:15.263Z,102728.72
2019-01-06T03:16:07.781Z,102724.57
2019-01-06T03:17:05.111Z,102726.55
2019-01-06T03:17:58.767Z,102728.61
2019-01-06T03:18:52.439Z,102725.50
2019-01-06T03:19:53.432Z,102725.50
2019-01-06T03:20:45.859Z,102719.59
2019-01-06T03:21:42.559Z,102718.95
2019-01-06T03:22:45.835Z,102723.10
2019-01-06T03:23:42.651Z,102723.92
2019-01-06T03:24:54.608Z,102715.27
2019-01-06T03:25:52.562Z,102726.09
2019-01-06T03:26:50.751Z,102719.69
2019-01-06T03:27:50.967Z,102721.22
2019-01-06T03:28:51.003Z,102725.16
2019-01-06T03:29:53.791Z,102721.13
2019-01-06T03:30:58.152Z,102721.31
2019-01-06T03:31:52.141Z,102718.66
2019-01-06T03:32:58.459Z,102714.42
2019-01-06T03:34:01.915Z,102723.10
2019-01-06T03:34:55.572Z,102720.73
2019-01-06T03:35:50.200Z,102710.78
2019-01-06T03:36:42.910Z,102709.59
2019-01-06T03:37:36.552Z,102716.24
2019-01-06T03:38:28.947Z,102712.00
2019-01-06T03:39:25.388Z,102703.44
2019-01-06T03:40:29.087Z,102708.91
2019-01-06T03:41:29.207Z,102714.97
2019-01-06T03:42:23.031Z,102702.80
2019-01-06T03:43:19.436Z,102703.89
2019-01-06T03:44:15.904Z,102699.35
2019-01-06T03:45:13.634Z,102699.75
2019-01-06T03:46:10.031Z,102703.38
2019-01-06T03:47:02.439Z,102705.85
2019-01-06T03:47:54.798Z,102702.80
2019-01-06T03:48:54.697Z,102705.75
2019-01-06T03:49:44.870Z,102705.75
2019-01-06T03:50:53.475Z,102701.33
2019-01-06T03:51:46.815Z,102704.87
2019-01-06T03:52:55.579Z,102709.99
2019-01-06T03:53:49.764Z,102702.16
2019-01-06T03:54:46.931Z,102699.64
2019-01-06T03:55:40.599Z,102700.19
2019-01-06T03:56:50.044Z,102702.16
2019-01-06T03:57:42.455Z,102706.16
2019-01-06T03:58:36.561Z,102708.56
2019-01-06T03:59:45.845Z,102698.38
2019-01-06T04:00:39.221Z,102697.73
2019-01-06T04:01:31.640Z,102701.47
2019-01-06T04:02:24.535Z,102694.67
2019-01-06T04:03:33.822Z,102692.30
2019-01-06T04:04:30.787Z,102697.33
2019-01-06T04:05:28.448Z,102687.39
2019-01-06T04:06:20.347Z,102696.45
2019-01-06T04:07:23.833Z,102694.87
2019-01-06T04:08:29.912Z,102693.34
2019-01-06T04:09:38.860Z,102682.12
2019-01-06T04:10:31.255Z,102680.83
2019-01-06T04:11:24.017Z,102682.55
2019-01-06T04:12:20.819Z,102688.07
2019-01-06T04:13:33.176Z,102684.23
2019-01-06T04:14:26.177Z,102677.83
2019-01-06T04:15:12.483Z,102682.55
2019-01-06T04:16:15.241Z,102690.63
2019-01-06T04:17:08.929Z,102686.73
2019-01-06T04:18:12.014Z,102676.70
2019-01-06T04:19:04.692Z,102678.47
2019-01-06T04:19:58.357Z,102680.94
2019-01-06T04:20:50.716Z,102676.89
2019-01-06T04:21:50.277Z,102678.66
2019-01-06T04:22:42.733Z,102678.07
2019-01-06T04:23:39.545Z,102676.60
2019-01-06T04:24:37.044Z,102677.83
2019-01-06T04:25:38.655Z,102677.33
2019-01-06T04:26:39.099Z,102679.26
2019-01-06T04:27:32.601Z,102678.61
2019-01-06T04:28:30.700Z,102680.05
2019-01-06T04:29:19.707Z,102679.66
2019-01-06T04:30:12.375Z,102683.50
2019-01-06T04:31:04.631Z,102676.39
2019-01-06T04:32:10.821Z,102681.66
2019-01-06T04:33:20.273Z,102687.52
2019-01-06T04:34:14.031Z,102678.38
2019-01-06T04:35:06.687Z,102676.20
2019-01-06T04:36:00.070Z,102677.98
2019-01-06T04:37:06.209Z,102683.29
2019-01-06T04:37:58.952Z,102673.34
2019-01-06T04:38:55.339Z,102676.70
2019-01-06T04:39:44.817Z,102674.14
2019-01-06T04:40:37.426Z,102681.33
2019-01-06T04:41:34.238Z,102674.92
2019-01-06T04:42:27.924Z,102668.13
2019-01-06T04:43:23.873Z,102672.21
2019-01-06T04:44:23.769Z,102673.30
2019-01-06T04:45:21.591Z,102672.52
2019-01-06T04:46:21.335Z,102672.12
2019-01-06T04:47:14.110Z,102663.34
2019-01-06T04:48:26.748Z,102676.84
2019-01-06T04:49:23.311Z,102671.42
2019-01-06T04:50:20.544Z,102669.41
2019-01-06T04:51:13.578Z,102672.77
2019-01-06T04:52:13.067Z,102663.34
2019-01-06T04:53:11.037Z,102672.30
2019-01-06T04:54:08.360Z,102668.37
2019-01-06T04:55:00.870Z,102666.59
2019-01-06T04:55:58.036Z,102664.92
2019-01-06T04:56:50.860Z,102668.77
2019-01-06T04:57:50.689Z,102667.63
2019-01-06T04:58:38.712Z,102665.62
2019-01-06T04:59:36.203Z,102667.19
2019-01-06T05:00:28.525Z,102665.32
2019-01-06T05:01:21.438Z,102655.72
2019-01-06T05:02:18.810Z,102663.34
2019-01-06T05:03:11.995Z,102662.76
2019-01-06T05:04:05.656Z,102673.49
2019-01-06T05:04:59.379Z,102670.59
2019-01-06T05:06:02.375Z,102667.09
2019-01-06T05:06:55.414Z,102666.41
2019-01-06T05:07:48.519Z,102670.84
2019-01-06T05:08:41.862Z,102673.16
2019-01-06T05:09:34.575Z,102676.94
2019-01-06T05:10:34.043Z,102669.46
2019-01-06T05:11:26.952Z,102664.34
2019-01-06T05:12:32.834Z,102675.86
2019-01-06T05:13:42.353Z,102669.70
2019-01-06T05:14:43.684Z,102672.70
2019-01-06T05:15:36.547Z,102673.09
2019-01-06T05:16:28.827Z,102672.81
2019-01-06T05:17:21.895Z,102673.20
2019-01-06T05:18:21.677Z,102679.89
2019-01-06T05:19:14.523Z,102671.88
2019-01-06T05:20:14.897Z,102669.59
2019-01-06T05:21:07.974Z,102663.89
2019-01-06T05:22:02.232Z,102671.81
2019-01-06T05:22:55.192Z,102666.75
2019-01-06T05:23:49.156Z,102675.66
2019-01-06T05:24:42.194Z,102680.45
2019-01-06T05:25:36.092Z,102675.02
2019-01-06T05:26:45.152Z,102671.97
2019-01-06T05:27:50.530Z,102673.64
2019-01-06T05:28:42.995Z,102671.02
2019-01-06T05:29:36.042Z,102680.49
2019-01-06T05:30:41.676Z,102676.26
2019-01-06T05:31:38.065Z,102674.58
2019-01-06T05:32:28.269Z,102665.13
2019-01-06T05:33:24.841Z,102672.66
2019-01-06T05:34:30.450Z,102667.94
2019-01-06T05:35:22.944Z,102674.09
2019-01-06T05:36:28.609Z,102672.02
2019-01-06T05:37:29.309Z,102672.42
2019-01-06T05:38:24.799Z,102681.62
2019-01-06T05:39:24.807Z,102674.67
2019-01-06T05:40:22.980Z,102676.66
2019-01-06T05:41:17.034Z,102680.59
2019-01-06T05:42:26.367Z,102674.98
2019-01-06T05:43:23.131Z,102679.56
2019-01-06T05:44:13.062Z,102681.42
2019-01-06T05:45:07.440Z,102680.39
2019-01-06T05:46:00.045Z,102683.25
2019-01-06T05:47:06.041Z,102679.16
2019-01-06T05:48:06.262Z,102685.56
2019-01-06T05:48:58.550Z,102685.90
2019-01-06T05:49:48.892Z,102683.73
2019-01-06T05:50:41.413Z,102684.63
2019-01-06T05:51:44.896Z,102687.30
2019-01-06T05:52:37.797Z,102686.90
2019-01-06T05:53:40.915Z,102688.52
2019-01-06T05:54:50.278Z,102685.16
2019-01-06T05:55:38.388Z,102687.72
2019-01-06T05:56:38.679Z,102691.37
2019-01-06T05:57:33.516Z,102688.18
2019-01-06T05:58:36.607Z,102693.00
2019-01-06T05:59:36.365Z,102693.59
2019-01-06T06:00:32.837Z,102690.44
2019-01-06T06:01:25.243Z,102692.52
2019-01-06T06:02:21.987Z,102695.07
2019-01-06T06:03:14.260Z,102692.36
2019-01-06T06:04:07.148Z,102693.49
2019-01-06T06:04:59.707Z,102692.86
2019-01-06T06:05:49.390Z,102700.39
2019-01-06T06:06:42.116Z,102702.95
2019-01-06T06:07:37.234Z,102698.70
2019-01-06T06:08:31.325Z,102702.70
2019-01-06T06:09:24.156Z,102694.47
2019-01-06T06:10:10.326Z,102703.44
2019-01-06T06:11:02.624Z,102702.95
2019-01-06T06:11:55.547Z,102698.36
2019-01-06T06:12:47.987Z,102704.37
2019-01-06T06:13:47.492Z,102707.13
2019-01-06T06:14:40.736Z,102712.70
2019-01-06T06:15:40.815Z,102708.46
2019-01-06T06:16:33.728Z,102712.06
2019-01-06T06:17:25.040Z,102712.30
2019-01-06T06:18:37.523Z,102714.23
2019-01-06T06:19:30.226Z,102711.12
2019-01-06T06:20:18.438Z,102712.05
2019-01-06T06:21:18.287Z,102720.19
2019-01-06T06:22:11.300Z,102712.25
2019-01-06T06:23:05.205Z,102719.55
2019-01-06T06:24:05.391Z,102720.29
2019-01-06T06:24:47.921Z,102712.61
2019-01-06T06:25:50.522Z,102723.38
2019-01-06T06:26:42.572Z,102714.52
2019-01-06T06:27:51.400Z,102719.41
2019-01-06T06:28:52.706Z,102717.77
2019-01-06T06:29:55.263Z,102716.69
2019-01-06T06:30:48.195Z,102723.09
2019-01-06T06:31:42.691Z,102720.12
2019-01-06T06:32:42.878Z,102718.84
2019-01-06T06:33:36.574Z,102724.43
2019-01-06T06:34:27.372Z,102720.29
2019-01-06T06:35:19.727Z,102720.78
2019-01-06T06:36:08.553Z,102725.64
2019-01-06T06:37:08.814Z,102724.52
2019-01-06T06:38:12.295Z,102715.95
2019-01-06T06:39:06.710Z,102724.50
2019-01-06T06:40:13.149Z,102719.05
2019-01-06T06:41:07.421Z,102728.90
2019-01-06T06:42:16.561Z,102728.50
2019-01-06T06:43:09.381Z,102723.23
2019-01-06T06:44:06.026Z,102718.10
2019-01-06T06:44:58.527Z,102724.96
2019-01-06T06:45:51.657Z,102724.80
2019-01-06T06:46:54.445Z,102726.97
2019-01-06T06:47:47.172Z,102732.59
2019-01-06T06:48:41.418Z,102730.77
2019-01-06T06:49:43.953Z,102736.48
2019-01-06T06:50:36.824Z,102729.00
2019-01-06T06:51:37.425Z,102732.19
2019-01-06T06:52:36.191Z,102732.05
2019-01-06T06:53:35.699Z,102739.40
2019-01-06T06:54:28.325Z,102739.24
2019-01-06T06:55:28.104Z,102732.69
2019-01-06T06:56:34.028Z,102738.26
2019-01-06T06:58:15.512Z,102736.48
2019-01-06T06:59:10.037Z,102740.42
2019-01-06T07:00:48.339Z,102734.75
2019-01-06T07:02:28.632Z,102737.52
2019-01-06T07:03:40.504Z,102738.69
2019-01-06T07:04:33.478Z,102738.69
2019-01-06T07:05:39.792Z,102746.12
2019-01-06T07:06:32.812Z,102755.17
2019-01-06T07:07:25.552Z,102741.88
2019-01-06T07:08:28.994Z,102753.02
2019-01-06T07:09:22.134Z,102757.44
2019-01-06T07:10:16.241Z,102754.48
2019-01-06T07:11:18.908Z,102751.77
2019-01-06T07:12:24.434Z,102757.55
2019-01-06T07:13:17.264Z,102751.87
2019-01-06T07:14:13.408Z,102757.67
2019-01-06T07:15:00.442Z,102757.58
2019-01-06T07:15:52.757Z,102762.01
2019-01-06T07:17:21.608Z,102759.55
2019-01-06T07:18:26.448Z,102758.17
2019-01-06T07:19:23.175Z,102761.48
2019-01-06T07:20:29.404Z,102760.30
2019-01-06T07:21:26.228Z,102761.09
2019-01-06T07:22:32.472Z,102760.44
2019-01-06T07:23:25.336Z,102765.03
2019-01-06T07:24:27.996Z,102770.67
2019-01-06T07:25:22.059Z,102770.97
2019-01-06T07:26:28.302Z,102771.56
2019-01-06T07:27:21.299Z,102773.17
2019-01-06T07:28:14.556Z,102780.22
2019-01-06T07:29:07.313Z,102767.48
2019-01-06T07:30:04.629Z,102782.06
2019-01-06T07:31:01.717Z,102773.69
2019-01-06T07:31:51.000Z,102778.16
2019-01-06T07:32:47.701Z,102777.38
2019-01-06T07:33:41.468Z,102773.10
2019-01-06T07:34:38.745Z,102774.97
2019-01-06T07:35:51.322Z,102785.55
2019-01-06T07:36:57.469Z,102785.11
2019-01-06T07:38:06.389Z,102779.63
2019-01-06T07:38:58.896Z,102779.08
2019-01-06T07:39:59.561Z,102782.98
2019-01-06T07:40:59.006Z,102780.22
2019-01-06T07:42:02.564Z,102782.00
2019-01-06T07:42:49.363Z,102786.89
2019-01-06T07:43:58.532Z,102785.61
2019-01-06T07:44:55.426Z,102789.34
2019-01-06T07:45:55.991Z,102790.83
2019-01-06T07:46:54.419Z,102785.21
2019-01-06T07:47:48.388Z,102789.84
2019-01-06T07:48:38.921Z,102786.69
2019-01-06T07:49:32.552Z,102794.38
2019-01-06T07:50:24.523Z,102794.66
2019-01-06T07:51:12.266Z,102799.30
2019-01-06T07:52:04.704Z,102795.36
2019-01-06T07:53:05.327Z,102792.08
2019-01-06T07:53:58.967Z,102790.73
2019-01-06T07:55:01.964Z,102800.94
2019-01-06T07:55:55.002Z,102793.58
2019-01-06T07:57:04.093Z,102795.95
2019-01-06T07:58:07.815Z,102804.16
2019-01-06T07:59:10.357Z,102793.02
2019-01-06T08:00:16.717Z,102800.97
2019-01-06T08:01:25.972Z,102799.33
2019-01-06T08:02:32.807Z,102802.05
2019-01-06T08:03:42.025Z,102801.00
2019-01-06T08:04:27.361Z,102805.06
2019-01-06T08:05:20.364Z,102806.91
2019-01-06T08:06:29.553Z,102805.09
2019-01-06T08:07:23.550Z,102806.23
2019-01-06T08:08:15.785Z,102810.13
2019-01-06T08:09:24.631Z,102805.53
2019-01-06T08:10:30.579Z,102806.35
2019-01-06T08:11:26.938Z,102815.28
2019-01-06T08:12:19.061Z,102809.47
2019-01-06T08:13:19.011Z,102814.20
2019-01-06T08:14:12.691Z,102812.00
2019-01-06T08:15:07.153Z,102812.95
2019-01-06T08:15:59.668Z,102819.35
2019-01-06T08:16:56.991Z,102818.14
2019-01-06T08:17:59.581Z,102813.34
2019-01-06T08:18:56.092Z,102821.32
2019-01-06T08:19:48.899Z,102815.02
2019-01-06T08:20:42.917Z,102820.80
2019-01-06T08:21:35.890Z,102819.25
2019-01-06T08:22:39.254Z,102823.88
2019-01-06T08:23:33.042Z,102828.12
2019-01-06T08:24:36.364Z,102824.57
2019-01-06T08:25:45.222Z,102828.02
2019-01-06T08:26:38.939Z,102825.95
2019-01-06T08:27:45.141Z,102829.95
2019-01-06T08:29:04.643Z,102831.56
2019-01-06T08:30:20.406Z,102825.42
2019-01-06T08:31:41.650Z,102833.41
2019-01-06T08:32:42.517Z,102829.89
2019-01-06T08:33:52.653Z,102833.60
2019-01-06T08:34:55.891Z,102834.78
2019-01-06T08:36:21.563Z,102835.60
2019-01-06T08:37:24.106Z,102834.42
2019-01-06T08:38:19.864Z,102836.32
2019-01-06T08:39:16.455Z,102836.72
2019-01-06T08:40:19.550Z,102833.14
2019-01-06T08:41:13.141Z,102836.55
2019-01-06T08:42:05.812Z,102839.38
2019-01-06T08:43:01.505Z,102836.78
2019-01-06T08:44:02.718Z,102838.75
2019-01-06T08:45:08.624Z,102838.92
2019-01-06T08:46:21.037Z,102838.62
2019-01-06T08:47:23.846Z,102842.30
2019-01-06T08:48:16.532Z,102840.82
2019-01-06T08:49:11.036Z,102838.36
2019-01-06T08:50:15.742Z,102836.98
2019-01-06T08:51:31.983Z,102841.91
2019-01-06T08:52:32.246Z,102836.62
2019-01-06T08:53:27.691Z,102842.40
2019-01-06T08:54:21.654Z,102839.64
2019-01-06T08:55:16.682Z,102841.97
2019-01-06T08:56:13.525Z,102842.95
2019-01-06T08:57:16.609Z,102839.15
2019-01-06T08:59:35.614Z,102837.67
2019-01-06T09:00:28.769Z,102835.80
2019-01-06T09:01:21.531Z,102841.61
2019-01-06T09:02:14.698Z,102847.22
2019-01-06T09:03:32.891Z,102841.22
2019-01-06T09:04:42.589Z,102847.09
2019-01-06T09:05:37.008Z,102842.86
2019-01-06T09:06:29.591Z,102842.66
2019-01-06T09:07:27.430Z,102840.69
2019-01-06T09:08:20.816Z,102840.33
2019-01-06T09:09:09.887Z,102845.22
2019-01-06T09:10:04.167Z,102843.32
2019-01-06T09:11:04.478Z,102842.95
2019-01-06T09:12:07.749Z,102844.23
2019-01-06T09:13:31.995Z,102845.69
2019-01-06T09:14:45.732Z,102851.62
2019-01-06T09:15:57.708Z,102852.31
2019-01-06T09:17:00.704Z,102851.13
2019-01-06T09:18:04.605Z,102849.52
2019-01-06T09:19:05.164Z,102849.09
2019-01-06T09:19:58.190Z,102845.88
2019-01-06T09:20:55.451Z,102849.12
2019-01-06T09:21:57.818Z,102853.37
2019-01-06T09:22:56.699Z,102853.47
2019-01-06T09:23:49.578Z,102851.16
2019-01-06T09:24:42.805Z,102853.23
2019-01-06T09:25:40.964Z,102853.73
2019-01-06T09:26:30.874Z,102858.36
2019-01-06T09:27:23.357Z,102861.91
2019-01-06T09:28:19.759Z,102856.68
2019-01-06T09:29:20.047Z,102858.06
2019-01-06T09:30:12.741Z,102858.06
2019-01-06T09:32:16.762Z,102859.34
2019-01-06T09:33:17.056Z,102859.34
2019-01-06T09:34:10.906Z,102861.18
2019-01-06T09:35:16.856Z,102863.25
2019-01-06T09:36:16.613Z,102863.84
2019-01-06T09:37:11.039Z,102864.44
2019-01-06T09:38:10.530Z,102867.98
2019-01-06T09:39:18.537Z,102861.38
2019-01-06T09:40:10.862Z,102863.16
2019-01-06T09:41:17.742Z,102866.53
2019-01-06T09:42:17.835Z,102867.66
2019-01-06T09:43:07.343Z,102866.34
2019-01-06T09:44:10.468Z,102860.45
2019-01-06T09:45:25.630Z,102870.21
2019-01-06T09:46:22.273Z,102868.90
2019-01-06T09:47:30.850Z,102875.01
2019-01-06T09:48:23.876Z,102869.95
2019-01-06T09:49:26.540Z,102871.59
2019-01-06T09:50:20.370Z,102872.58
2019-01-06T09:51:14.692Z,102869.00
2019-01-06T09:52:16.466Z,102870.05
2019-01-06T09:53:13.249Z,102867.59
2019-01-06T09:54:07.342Z,102872.70
2019-01-06T09:55:01.042Z,102867.59
2019-01-06T09:56:07.530Z,102869.03
2019-01-06T09:57:00.001Z,102867.42
2019-01-06T09:57:48.639Z,102868.02
2019-01-06T09:58:35.537Z,102868.80
2019-01-06T09:59:29.615Z,102867.09
2019-01-06T10:00:32.564Z,102867.98
2019-01-06T10:01:24.967Z,102871.16
2019-01-06T10:02:09.867Z,102869.79
2019-01-06T10:03:09.593Z,102870.34
2019-01-06T10:04:02.235Z,102874.78
2019-01-06T10:05:05.125Z,102872.74
2019-01-06T10:06:16.243Z,102868.08
2019-01-06T10:07:09.734Z,102867.78
2019-01-06T10:08:07.081Z,102869.12
2019-01-06T10:08:59.839Z,102869.45
2019-01-06T10:09:45.878Z,102878.29
2019-01-06T10:10:52.475Z,102876.12
2019-01-06T10:11:44.851Z,102875.62
2019-01-06T10:12:51.100Z,102876.42
2019-01-06T10:13:57.001Z,102874.45
2019-01-06T10:14:52.245Z,102879.38
2019-01-06T10:15:58.219Z,102876.78
2019-01-06T10:16:54.640Z,102877.56
2019-01-06T10:17:46.794Z,102876.72
2019-01-06T10:18:43.250Z,102880.52
2019-01-06T10:19:29.542Z,102878.16
2019-01-06T10:20:27.224Z,102876.38
2019-01-06T10:21:36.820Z,102878.41
2019-01-06T10:22:36.782Z,102876.97
2019-01-06T10:23:31.121Z,102879.93
2019-01-06T10:24:37.266Z,102877.86
2019-01-06T10:25:30.990Z,102876.72
2019-01-06T10:26:26.331Z,102878.98
2019-01-06T10:27:26.646Z,102881.05
2019-01-06T10:28:19.738Z,102877.11
2019-01-06T10:29:12.210Z,102878.55
2019-01-06T10:30:15.012Z,102882.09
2019-01-06T10:31:07.424Z,102881.73
2019-01-06T10:31:59.303Z,102885.25
2019-01-06T10:32:52.325Z,102879.80
2019-01-06T10:33:49.155Z,102873.48
2019-01-06T10:34:52.362Z,102878.91
2019-01-06T10:35:48.376Z,102878.12
2019-01-06T10:38:39.484Z,102873.48
2019-01-06T10:40:18.197Z,102880.68
2019-01-06T10:41:35.695Z,102878.22
2019-01-06T10:43:00.449Z,102881.33
2019-01-06T10:44:22.596Z,102875.77
2019-01-06T10:45:53.259Z,102880.90
2019-01-06T10:47:16.101Z,102879.71
2019-01-06T10:48:39.447Z,102879.06
2019-01-06T10:50:24.375Z,102875.61
2019-01-06T10:51:57.038Z,102879.12
2019-01-06T10:53:32.750Z,102880.11
2019-01-06T10:54:55.138Z,102882.31
2019-01-06T10:56:37.836Z,102887.67
2019-01-06T10:58:01.507Z,102884.34
2019-01-06T10:59:40.118Z,102880.11
2019-01-06T11:01:22.952Z,102884.55
2019-01-06T11:02:45.875Z,102884.60
2019-01-06T11:04:08.432Z,102884.94
2019-01-06T11:05:34.511Z,102884.69
2019-01-06T11:06:58.579Z,102890.85
2019-01-06T11:08:29.043Z,102884.74
2019-01-06T11:10:02.246Z,102883.81
2019-01-06T11:11:38.317Z,102880.66
2019-01-06T11:13:01.080Z,102879.53
2019-01-06T11:14:30.550Z,102875.69
2019-01-06T11:15:59.823Z,102879.53
2019-01-06T11:17:39.299Z,102874.10
2019-01-06T11:19:05.954Z,102879.86